Time;durP1;ratioP1;P1;durP2;ratioP2;P2;SDS_P1;SDS_P2;PMS_P1;PMS_P2;Temp;Humidity;BMP_temperature;BMP_pressure;BME280_temperature;BME280_humidity;BME280_pressure;Samples;Min_cycle;Max_cycle;Signal;HPM_P1;HPM_P2
2021/05/20 00:00:28;;;;;;;1.17;1.05;;;15.70;84.70;;;;;;5094375;28;20049;-66
2021/05/20 00:02:54;;;;;;;1.33;1.23;;;15.70;84.70;;;;;;5076198;28;20024;-66
2021/05/20 00:05:20;;;;;;;1.10;1.00;;;15.60;84.30;;;;;;5076518;28;20036;-66
2021/05/20 00:07:46;;;;;;;1.52;1.42;;;15.60;84.40;;;;;;5094690;28;20069;-66
2021/05/20 00:10:14;;;;;;;1.10;1.10;;;15.60;84.30;;;;;;5093974;28;20024;-66
2021/05/20 00:12:39;;;;;;;1.48;1.42;;;15.60;84.40;;;;;;5093874;28;20027;-66
2021/05/20 00:15:07;;;;;;;1.15;1.10;;;15.50;84.30;;;;;;5091364;28;20020;-65
2021/05/20 00:17:33;;;;;;;1.27;1.25;;;15.50;84.40;;;;;;5094400;28;20039;-65
2021/05/20 00:19:58;;;;;;;1.27;1.27;;;15.50;84.60;;;;;;5094860;28;20716;-65
2021/05/20 00:22:24;;;;;;;1.48;1.40;;;15.50;84.80;;;;;;5094413;28;20099;-66
2021/05/20 00:24:50;;;;;;;1.48;1.38;;;15.50;84.50;;;;;;5093969;28;20032;-65
2021/05/20 00:27:15;;;;;;;1.23;1.20;;;15.50;84.30;;;;;;5094258;28;20450;-65
2021/05/20 00:29:42;;;;;;;1.75;1.50;;;15.50;84.40;;;;;;5094335;28;20522;-65
2021/05/20 00:32:08;;;;;;;1.25;1.25;;;15.50;84.40;;;;;;5093967;28;20036;-66
2021/05/20 00:34:33;;;;;;;1.63;1.52;;;15.50;84.20;;;;;;5091694;28;20054;-66
2021/05/20 00:36:59;;;;;;;1.48;1.38;;;15.50;84.30;;;;;;5089868;28;20055;-66
2021/05/20 00:39:25;;;;;;;1.73;1.63;;;15.60;84.30;;;;;;5094124;28;20024;-66
2021/05/20 00:41:50;;;;;;;1.77;1.65;;;15.60;84.30;;;;;;5087243;28;20403;-66
2021/05/20 00:44:16;;;;;;;1.75;1.65;;;15.60;84.30;;;;;;5081252;28;20387;-66
2021/05/20 00:46:42;;;;;;;1.73;1.60;;;15.60;84.20;;;;;;5090781;28;20032;-66
2021/05/20 00:49:10;;;;;;;1.60;1.50;;;15.70;84.30;;;;;;5087453;28;20396;-66
2021/05/20 00:51:40;;;;;;;1.83;1.65;;;15.70;84.00;;;;;;5085983;28;20046;-66
2021/05/20 00:54:06;;;;;;;1.23;1.23;;;15.70;83.70;;;;;;5088223;28;20028;-65
2021/05/20 00:56:36;;;;;;;1.67;1.58;;;15.70;83.60;;;;;;5094084;28;20475;-65
2021/05/20 00:59:04;;;;;;;2.08;1.70;;;15.70;83.50;;;;;;5093139;28;20026;-65
2021/05/20 01:01:30;;;;;;;2.10;1.90;;;15.70;83.40;;;;;;5093568;28;20036;-66
2021/05/20 01:03:56;;;;;;;1.50;1.50;;;15.70;83.30;;;;;;5093768;28;20016;-66
2021/05/20 01:06:22;;;;;;;1.77;1.67;;;15.70;83.20;;;;;;5093301;28;20024;-66
2021/05/20 01:08:48;;;;;;;1.90;1.80;;;15.70;83.20;;;;;;5093496;28;20034;-66
2021/05/20 01:11:13;;;;;;;2.85;1.42;;;15.70;83.20;;;;;;5093420;28;20042;-66
2021/05/20 01:13:39;;;;;;;1.20;1.20;;;15.70;83.10;;;;;;5084862;28;20074;-66
2021/05/20 01:16:12;;;;;;;1.60;1.50;;;15.70;83.10;;;;;;5091286;28;20027;-66
2021/05/20 01:18:38;;;;;;;1.17;1.17;;;15.70;82.90;;;;;;5082690;28;20440;-66
2021/05/20 01:21:04;;;;;;;1.65;1.55;;;15.70;82.80;;;;;;5093630;28;20028;-66
2021/05/20 01:23:30;;;;;;;2.03;1.65;;;15.70;82.70;;;;;;5092580;28;20031;-65
2021/05/20 01:26:01;;;;;;;2.55;1.80;;;15.60;82.40;;;;;;5089751;28;20093;-65
2021/05/20 01:28:28;;;;;;;3.20;1.55;;;15.50;82.50;;;;;;5093823;28;20020;-65
2021/05/20 01:30:54;;;;;;;1.70;1.60;;;15.50;82.90;;;;;;5093084;28;20046;-65
2021/05/20 01:33:20;;;;;;;2.45;1.90;;;15.50;82.90;;;;;;5092475;28;20110;-65
2021/05/20 01:35:46;;;;;;;1.70;1.60;;;15.40;83.10;;;;;;5092865;28;20460;-65
2021/05/20 01:40:53;;;;;;;2.40;1.50;;;15.40;83.60;;;;;;5093303;28;20099;-65
2021/05/20 01:43:19;;;;;;;2.58;1.80;;;15.40;83.90;;;;;;5090576;28;20040;-65
2021/05/20 01:45:56;;;;;;;2.65;1.60;;;15.40;84.00;;;;;;5093049;28;20081;-65
2021/05/20 01:48:22;;;;;;;1.88;1.70;;;15.40;83.90;;;;;;5088749;28;20123;-65
2021/05/20 01:50:48;;;;;;;1.63;1.52;;;15.40;83.90;;;;;;5092631;28;20107;-65
2021/05/20 01:53:14;;;;;;;1.83;1.73;;;15.40;83.80;;;;;;5092406;28;20039;-65
2021/05/20 01:55:40;;;;;;;1.60;1.50;;;15.40;83.60;;;;;;5074811;28;20028;-65
2021/05/20 01:58:05;;;;;;;1.92;1.80;;;15.40;83.60;;;;;;5091333;28;20024;-65
2021/05/20 02:00:31;;;;;;;2.03;1.67;;;15.40;83.70;;;;;;5092711;28;20032;-65
2021/05/20 02:02:57;;;;;;;1.83;1.67;;;15.40;83.50;;;;;;5092324;28;20375;-65
2021/05/20 02:05:23;;;;;;;2.15;1.95;;;15.40;83.60;;;;;;5092571;28;20089;-65
2021/05/20 02:07:49;;;;;;;1.63;1.52;;;15.30;83.50;;;;;;5092658;28;20028;-65
2021/05/20 02:10:14;;;;;;;1.70;1.60;;;15.30;83.50;;;;;;5090822;28;20035;-65
2021/05/20 02:12:40;;;;;;;1.50;1.50;;;15.30;83.50;;;;;;5091745;28;20028;-66
2021/05/20 02:15:06;;;;;;;1.92;1.73;;;15.30;83.90;;;;;;5091558;28;20423;-66
2021/05/20 02:17:33;;;;;;;1.70;1.60;;;15.30;83.50;;;;;;5085313;28;20365;-65
2021/05/20 02:19:59;;;;;;;1.70;1.60;;;15.30;83.50;;;;;;5092662;28;20052;-65
2021/05/20 02:22:24;;;;;;;2.05;1.88;;;15.30;83.60;;;;;;5091045;28;20058;-65
2021/05/20 02:24:50;;;;;;;1.90;1.80;;;15.30;83.60;;;;;;5092544;28;20119;-65
2021/05/20 02:27:15;;;;;;;1.80;1.70;;;15.40;83.80;;;;;;5092581;28;20020;-65
2021/05/20 02:29:41;;;;;;;1.92;1.80;;;15.40;83.50;;;;;;5092686;28;20020;-65
2021/05/20 02:32:07;;;;;;;1.95;1.75;;;15.40;83.70;;;;;;5092166;28;20475;-65
2021/05/20 02:34:32;;;;;;;2.00;1.80;;;15.30;83.70;;;;;;5093122;28;20024;-65
2021/05/20 02:36:58;;;;;;;2.30;1.80;;;15.30;83.70;;;;;;5096278;28;20024;-65
2021/05/20 02:39:24;;;;;;;2.58;2.00;;;15.30;83.60;;;;;;5094036;28;20059;-65
2021/05/20 02:41:49;;;;;;;2.45;1.88;;;15.30;83.70;;;;;;5088368;28;20055;-65
2021/05/20 02:44:15;;;;;;;1.90;1.70;;;15.40;83.80;;;;;;5095692;28;20671;-65
2021/05/20 02:46:41;;;;;;;2.65;1.80;;;15.30;83.70;;;;;;5096502;28;20043;-66
2021/05/20 02:49:06;;;;;;;2.17;1.75;;;15.40;83.70;;;;;;5096208;28;20024;-67
2021/05/20 02:51:32;;;;;;;1.80;1.70;;;15.40;83.90;;;;;;5096240;28;20036;-66
2021/05/20 02:53:58;;;;;;;2.35;1.98;;;15.40;83.90;;;;;;5095389;28;20051;-66
2021/05/20 02:56:23;;;;;;;2.58;1.90;;;15.40;83.60;;;;;;5095964;28;20109;-65
2021/05/20 02:58:49;;;;;;;2.97;2.03;;;15.40;83.50;;;;;;5083357;28;20027;-65
2021/05/20 03:01:15;;;;;;;2.75;2.15;;;15.40;83.80;;;;;;5095408;28;20039;-65
2021/05/20 03:03:40;;;;;;;2.13;1.73;;;15.40;83.00;;;;;;5095172;28;20047;-65
2021/05/20 03:06:06;;;;;;;2.40;2.20;;;15.40;82.90;;;;;;5096092;28;20059;-65
2021/05/20 03:08:33;;;;;;;2.53;2.15;;;15.40;82.80;;;;;;5095547;28;20110;-65
2021/05/20 03:10:59;;;;;;;2.42;1.80;;;15.40;82.80;;;;;;5095472;28;20110;-65
2021/05/20 03:13:24;;;;;;;2.63;2.00;;;15.40;82.70;;;;;;5095208;28;20535;-65
2021/05/20 03:15:50;;;;;;;2.83;2.20;;;15.40;82.60;;;;;;5092215;28;20535;-65
2021/05/20 03:18:16;;;;;;;2.50;2.00;;;15.30;82.70;;;;;;5095506;28;20055;-65
2021/05/20 03:20:41;;;;;;;2.08;1.98;;;15.30;83.00;;;;;;5077487;28;20028;-65
2021/05/20 03:23:07;;;;;;;2.20;2.10;;;15.20;83.10;;;;;;5095017;28;20032;-65
2021/05/20 03:25:35;;;;;;;2.60;2.40;;;15.30;83.20;;;;;;5094892;28;20039;-65
2021/05/20 03:28:00;;;;;;;2.92;2.00;;;15.20;83.50;;;;;;5095106;28;20067;-65
2021/05/20 03:30:26;;;;;;;3.60;2.45;;;15.30;83.80;;;;;;5095280;28;20060;-65
2021/05/20 03:32:52;;;;;;;2.30;2.10;;;15.30;84.00;;;;;;5095823;28;20054;-65
2021/05/20 03:35:18;;;;;;;2.55;2.33;;;15.30;83.90;;;;;;5095567;28;20051;-65
2021/05/20 03:37:43;;;;;;;2.33;2.13;;;15.40;83.60;;;;;;5095526;28;20065;-65
2021/05/20 03:40:09;;;;;;;2.50;2.30;;;15.40;83.70;;;;;;5095568;28;20023;-66
2021/05/20 03:42:36;;;;;;;2.70;2.13;;;15.40;83.50;;;;;;5080003;28;20400;-65
2021/05/20 03:45:03;;;;;;;2.08;1.98;;;15.40;83.30;;;;;;5073671;28;20079;-65
2021/05/20 03:47:29;;;;;;;6.72;2.55;;;15.50;83.00;;;;;;5056736;28;20021;-65
2021/05/20 03:49:54;;;;;;;2.30;2.10;;;15.50;82.90;;;;;;5093781;28;20468;-65
2021/05/20 03:52:20;;;;;;;2.40;2.20;;;15.50;82.80;;;;;;5093141;28;20027;-65
2021/05/20 03:54:45;;;;;;;2.00;1.90;;;15.60;82.30;;;;;;5093496;28;20012;-66
2021/05/20 03:57:11;;;;;;;2.38;2.17;;;15.60;82.30;;;;;;5094071;28;20103;-66
2021/05/20 03:59:37;;;;;;;2.28;1.83;;;15.60;82.30;;;;;;5092631;28;20455;-66
2021/05/20 04:02:03;;;;;;;4.20;2.10;;;15.60;82.90;;;;;;5094429;28;20017;-66
2021/05/20 04:04:29;;;;;;;4.40;2.28;;;15.70;82.30;;;;;;5094836;28;20059;-66
2021/05/20 04:06:55;;;;;;;2.13;1.92;;;15.70;82.30;;;;;;5094872;28;20361;-66
2021/05/20 04:09:20;;;;;;;3.30;2.45;;;15.80;82.00;;;;;;5095141;28;20027;-66
2021/05/20 04:11:46;;;;;;;2.65;2.40;;;15.80;81.80;;;;;;5094404;28;20032;-66
2021/05/20 04:14:12;;;;;;;2.47;2.22;;;15.80;81.20;;;;;;5091800;28;20015;-66
2021/05/20 04:16:37;;;;;;;3.17;2.20;;;15.90;81.10;;;;;;5091910;28;20024;-66
2021/05/20 04:19:04;;;;;;;2.67;2.13;;;15.90;80.90;;;;;;5094992;28;20044;-66
2021/05/20 04:21:30;;;;;;;2.80;2.22;;;15.90;80.80;;;;;;5094828;28;20022;-66
2021/05/20 04:23:56;;;;;;;3.28;2.17;;;15.90;80.50;;;;;;5093992;28;20039;-66
2021/05/20 04:26:22;;;;;;;2.40;2.17;;;15.90;80.40;;;;;;5094349;28;20031;-66
2021/05/20 04:28:48;;;;;;;2.28;2.00;;;15.90;80.20;;;;;;5094499;28;20341;-66
2021/05/20 04:31:14;;;;;;;2.47;2.05;;;15.90;80.10;;;;;;5094253;28;20027;-66
2021/05/20 04:33:43;;;;;;;3.22;2.17;;;16.00;80.50;;;;;;5091809;28;20047;-66
2021/05/20 04:36:09;;;;;;;2.35;1.90;;;16.00;79.80;;;;;;5092778;28;20016;-66
2021/05/20 04:38:35;;;;;;;2.60;2.40;;;16.00;79.70;;;;;;5094303;28;20024;-66
2021/05/20 04:41:01;;;;;;;6.22;2.33;;;16.00;80.10;;;;;;5075547;28;20081;-66
2021/05/20 04:43:26;;;;;;;2.25;2.15;;;16.00;79.20;;;;;;5092775;28;20081;-66
2021/05/20 04:45:52;;;;;;;3.03;2.08;;;16.00;79.10;;;;;;5092489;28;20024;-66
2021/05/20 04:48:18;;;;;;;2.97;2.35;;;15.90;79.10;;;;;;5092674;28;20028;-66
2021/05/20 04:50:44;;;;;;;4.07;2.50;;;15.90;79.20;;;;;;5086720;28;20028;-66
2021/05/20 04:53:09;;;;;;;2.60;2.40;;;16.00;79.20;;;;;;5092720;28;20024;-66
2021/05/20 04:55:35;;;;;;;2.25;1.92;;;16.00;79.00;;;;;;5092561;28;20024;-66
2021/05/20 04:58:02;;;;;;;3.45;2.65;;;16.00;78.60;;;;;;5092555;28;20055;-66
2021/05/20 05:00:29;;;;;;;4.10;3.17;;;16.10;78.60;;;;;;5092841;28;20024;-66
2021/05/20 05:02:54;;;;;;;3.30;2.78;;;16.10;78.10;;;;;;5089318;28;20020;-66
2021/05/20 05:05:21;;;;;;;2.88;2.58;;;16.10;78.40;;;;;;5092666;28;20043;-66
2021/05/20 05:07:46;;;;;;;2.95;2.30;;;16.10;77.90;;;;;;5091731;28;20047;-66
2021/05/20 05:10:12;;;;;;;3.15;2.30;;;16.10;77.80;;;;;;5093419;28;20024;-66
2021/05/20 05:12:38;;;;;;;2.35;2.15;;;16.10;77.70;;;;;;5092627;28;20063;-66
2021/05/20 05:15:08;;;;;;;2.10;2.00;;;16.10;77.30;;;;;;5092091;28;20490;-66
2021/05/20 05:17:33;;;;;;;2.28;2.00;;;16.10;77.30;;;;;;5093457;28;20020;-66
2021/05/20 05:19:59;;;;;;;2.50;2.13;;;16.20;77.20;;;;;;5093810;28;20024;-66
2021/05/20 05:22:25;;;;;;;3.40;2.15;;;16.20;77.00;;;;;;5093113;28;20627;-66
2021/05/20 05:24:50;;;;;;;2.30;2.10;;;16.20;76.70;;;;;;5088899;28;20056;-66
2021/05/20 05:27:16;;;;;;;2.67;2.42;;;16.20;76.50;;;;;;5090188;28;20379;-66
2021/05/20 05:29:44;;;;;;;2.50;2.30;;;16.20;76.50;;;;;;5086506;28;20034;-66
2021/05/20 05:32:10;;;;;;;2.28;1.75;;;16.30;76.70;;;;;;5086501;28;20024;-66
2021/05/20 05:34:36;;;;;;;2.28;1.85;;;16.30;76.40;;;;;;5082220;28;20051;-66
2021/05/20 05:37:02;;;;;;;2.78;2.03;;;16.30;76.30;;;;;;5066223;28;20353;-66
2021/05/20 05:39:28;;;;;;;4.20;2.20;;;16.20;76.30;;;;;;5085340;28;20472;-66
2021/05/20 05:41:54;;;;;;;6.00;2.17;;;16.20;76.30;;;;;;5085105;28;20107;-66
2021/05/20 05:44:20;;;;;;;2.70;1.90;;;16.20;76.00;;;;;;5089000;28;20048;-65
2021/05/20 05:46:46;;;;;;;3.10;2.05;;;16.20;76.10;;;;;;5084859;28;20031;-65
2021/05/20 05:49:15;;;;;;;2.25;1.90;;;16.20;75.80;;;;;;5082946;28;20032;-57
2021/05/20 05:51:45;;;;;;;2.55;2.17;;;16.20;75.70;;;;;;5077588;28;20039;-59
2021/05/20 05:54:12;;;;;;;2.78;2.00;;;16.30;75.20;;;;;;5075631;28;20075;-57
2021/05/20 05:56:37;;;;;;;2.58;2.38;;;16.30;75.60;;;;;;5077250;28;20047;-57
2021/05/20 05:59:04;;;;;;;2.38;1.90;;;16.30;75.30;;;;;;5079250;28;20020;-57
2021/05/20 06:01:30;;;;;;;3.08;2.08;;;16.30;75.50;;;;;;5074502;28;20115;-57
2021/05/20 06:03:57;;;;;;;2.45;2.22;;;16.30;75.40;;;;;;5079221;28;20050;-55
2021/05/20 06:06:23;;;;;;;2.40;2.20;;;16.40;75.20;;;;;;5075448;28;20672;-66
2021/05/20 06:08:48;;;;;;;3.95;2.10;;;16.40;75.40;;;;;;5072698;28;20047;-63
2021/05/20 06:11:14;;;;;;;3.88;2.10;;;16.50;75.40;;;;;;5075864;28;20060;-65
2021/05/20 06:13:40;;;;;;;3.92;1.98;;;16.60;75.10;;;;;;5078830;28;20671;-65
2021/05/20 06:16:05;;;;;;;3.63;2.22;;;16.70;74.80;;;;;;5081726;28;20024;-65
2021/05/20 06:18:31;;;;;;;2.83;2.00;;;16.70;74.80;;;;;;5087897;28;20029;-64
2021/05/20 06:20:57;;;;;;;2.35;2.15;;;16.80;74.80;;;;;;5083199;28;20355;-62
2021/05/20 06:23:22;;;;;;;2.30;2.10;;;17.00;74.50;;;;;;5083285;28;20395;-62
2021/05/20 06:25:48;;;;;;;2.33;2.13;;;17.10;74.20;;;;;;5081345;28;20126;-61
2021/05/20 06:28:14;;;;;;;3.97;2.35;;;17.20;74.00;;;;;;5082460;28;20032;-61
2021/05/20 06:30:40;;;;;;;2.10;1.90;;;17.20;73.40;;;;;;5080790;28;20035;-62
2021/05/20 06:33:06;;;;;;;2.72;2.17;;;17.40;73.30;;;;;;5087217;28;20468;-61
2021/05/20 06:35:32;;;;;;;2.33;2.08;;;17.50;73.10;;;;;;5089777;28;20035;-64
2021/05/20 06:37:57;;;;;;;3.47;2.28;;;17.60;72.90;;;;;;5084963;28;20055;-66
2021/05/20 06:40:23;;;;;;;2.15;1.77;;;17.80;72.00;;;;;;5082165;28;20415;-65
2021/05/20 06:42:49;;;;;;;2.20;2.00;;;17.90;71.40;;;;;;5076601;28;20115;-64
2021/05/20 06:45:14;;;;;;;2.05;1.95;;;17.90;71.00;;;;;;5074393;28;20047;-66
2021/05/20 06:47:40;;;;;;;1.85;1.75;;;18.00;70.90;;;;;;5076735;28;20125;-65
2021/05/20 06:50:07;;;;;;;2.40;1.80;;;18.00;70.80;;;;;;5079053;28;20439;-67
2021/05/20 06:52:32;;;;;;;6.55;2.10;;;18.10;70.30;;;;;;5082179;28;20533;-66
2021/05/20 06:54:58;;;;;;;2.65;1.92;;;18.20;69.80;;;;;;5082188;28;20024;-68
2021/05/20 06:57:27;;;;;;;2.33;2.13;;;18.20;69.50;;;;;;5078466;28;20415;-65
2021/05/20 06:59:57;;;;;;;3.88;2.00;;;18.30;70.10;;;;;;5071316;28;20555;-65
2021/05/20 07:02:26;;;;;;;2.13;1.70;;;18.30;69.40;;;;;;5074802;28;20579;-63
2021/05/20 07:04:52;;;;;;;3.83;1.95;;;18.40;67.90;;;;;;5069404;28;20040;-64
2021/05/20 07:07:28;;;;;;;2.05;1.85;;;18.40;67.30;;;;;;5078283;28;20900;-63
2021/05/20 07:09:54;;;;;;;3.08;1.83;;;18.30;67.30;;;;;;5072303;28;20044;-63
2021/05/20 07:12:19;;;;;;;2.70;2.20;;;18.40;67.50;;;;;;5074624;28;20039;-64
2021/05/20 07:14:45;;;;;;;2.22;1.90;;;18.40;67.90;;;;;;5079074;28;20023;-65
2021/05/20 07:17:12;;;;;;;2.80;2.00;;;18.40;67.40;;;;;;5079439;28;20028;-65
2021/05/20 07:19:38;;;;;;;2.97;1.77;;;18.40;66.80;;;;;;5076019;28;20124;-65
2021/05/20 07:22:05;;;;;;;1.95;1.73;;;18.40;66.90;;;;;;5074444;28;20035;-65
2021/05/20 07:24:31;;;;;;;1.77;1.67;;;18.50;66.50;;;;;;5077405;28;20040;-65
2021/05/20 07:26:57;;;;;;;3.35;1.58;;;18.40;65.80;;;;;;5078284;28;20036;-66
2021/05/20 07:29:22;;;;;;;4.13;1.90;;;18.40;65.80;;;;;;5075924;28;20113;-66
2021/05/20 07:31:49;;;;;;;1.67;1.58;;;18.40;64.90;;;;;;5070038;28;20041;-65
2021/05/20 07:34:15;;;;;;;1.95;1.85;;;18.40;65.00;;;;;;5070831;28;20028;-65
2021/05/20 07:36:40;;;;;;;15.57;2.42;;;18.50;65.40;;;;;;5071821;28;20081;-66
2021/05/20 07:39:07;;;;;;;2.55;1.60;;;18.50;65.90;;;;;;5075675;28;20351;-65
2021/05/20 07:41:34;;;;;;;1.88;1.63;;;18.60;66.00;;;;;;5069261;28;20107;-66
2021/05/20 07:44:00;;;;;;;2.45;1.80;;;18.70;65.30;;;;;;5072804;28;20057;-66
2021/05/20 07:46:26;;;;;;;1.63;1.52;;;18.70;64.80;;;;;;5074637;28;20388;-65
2021/05/20 07:48:51;;;;;;;2.35;1.60;;;18.80;64.80;;;;;;5063770;28;20162;-65
2021/05/20 07:51:17;;;;;;;1.75;1.58;;;18.80;64.50;;;;;;5068805;28;20388;-65
2021/05/20 07:53:43;;;;;;;1.95;1.70;;;18.80;63.90;;;;;;5072142;28;20058;-65
2021/05/20 07:56:09;;;;;;;1.67;1.42;;;18.90;63.70;;;;;;5070965;28;20130;-65
2021/05/20 07:58:35;;;;;;;2.05;1.85;;;18.80;63.40;;;;;;5070042;28;20024;-65
2021/05/20 08:01:02;;;;;;;2.30;1.70;;;18.90;63.20;;;;;;5071406;28;20129;-65
2021/05/20 08:03:38;;;;;;;1.88;1.73;;;18.90;63.40;;;;;;5079798;28;20036;-65
2021/05/20 08:06:11;;;;;;;3.30;1.98;;;18.90;62.80;;;;;;5076834;28;20036;-64
2021/05/20 08:11:09;;;;;;;2.35;1.50;;;19.00;62.70;;;;;;5078777;28;20103;-63
2021/05/20 08:13:35;;;;;;;2.47;1.70;;;19.10;61.90;;;;;;5070943;28;20030;-64
2021/05/20 08:16:02;;;;;;;1.77;1.50;;;19.20;61.30;;;;;;5065521;28;20340;-64
2021/05/20 08:18:29;;;;;;;2.25;1.67;;;19.20;61.60;;;;;;5071552;28;20077;-64
2021/05/20 08:20:56;;;;;;;2.15;1.58;;;19.30;61.70;;;;;;5072496;28;20043;-64
2021/05/20 08:23:22;;;;;;;1.75;1.65;;;19.40;61.60;;;;;;5075970;28;20054;-64
2021/05/20 08:25:48;;;;;;;1.90;1.80;;;19.50;61.40;;;;;;5067572;28;20032;-64
2021/05/20 08:28:14;;;;;;;2.90;1.60;;;19.50;60.90;;;;;;5073581;28;20056;-63
2021/05/20 08:30:40;;;;;;;8.95;3.58;;;19.60;60.40;;;;;;5073397;28;20097;-64
2021/05/20 08:33:06;;;;;;;2.40;1.98;;;19.50;60.00;;;;;;5071177;28;20020;-64
2021/05/20 08:35:32;;;;;;;3.35;1.98;;;19.60;60.10;;;;;;5074123;28;20052;-64
2021/05/20 08:37:58;;;;;;;2.63;1.77;;;19.60;60.20;;;;;;5075554;28;20483;-65
2021/05/20 08:40:24;;;;;;;1.75;1.50;;;19.70;60.30;;;;;;5073505;28;20024;-64
2021/05/20 08:42:50;;;;;;;5.22;2.58;;;19.70;59.60;;;;;;5071792;28;20089;-65
2021/05/20 08:45:22;;;;;;;5.00;2.65;;;19.70;59.30;;;;;;5075290;28;20040;-65
2021/05/20 08:47:52;;;;;;;3.10;2.22;;;19.70;59.30;;;;;;5075909;28;20048;-64
2021/05/20 08:50:20;;;;;;;2.90;2.17;;;19.70;59.80;;;;;;5075307;28;20099;-65
2021/05/20 08:52:46;;;;;;;2.83;2.00;;;19.70;60.20;;;;;;5072256;28;20027;-65
2021/05/20 08:55:21;;;;;;;2.67;1.98;;;19.80;60.30;;;;;;5067223;28;20023;-65
2021/05/20 08:57:47;;;;;;;1.95;1.77;;;19.80;59.50;;;;;;5058012;28;20535;-64
2021/05/20 09:00:19;;;;;;;1.63;1.52;;;19.90;59.20;;;;;;5067782;28;20055;-65
2021/05/20 09:02:45;;;;;;;2.42;2.10;;;19.90;58.70;;;;;;5048491;28;20040;-65
2021/05/20 09:05:16;;;;;;;1.90;1.80;;;19.90;58.40;;;;;;5073736;28;20032;-66
2021/05/20 09:07:43;;;;;;;2.08;1.60;;;19.90;58.70;;;;;;5070547;28;20039;-66
2021/05/20 09:10:18;;;;;;;2.22;1.65;;;19.90;58.50;;;;;;5070669;28;20048;-66
2021/05/20 09:12:45;;;;;;;1.50;1.40;;;19.90;58.50;;;;;;5075271;28;20028;-66
2021/05/20 09:15:18;;;;;;;1.98;1.85;;;19.80;58.10;;;;;;5075839;28;20107;-62
2021/05/20 09:17:45;;;;;;;3.42;1.90;;;19.80;57.80;;;;;;5073995;28;20043;-68
2021/05/20 09:20:12;;;;;;;2.28;2.00;;;19.70;57.80;;;;;;5066597;28;20430;-63
2021/05/20 09:22:38;;;;;;;1.95;1.83;;;19.70;57.90;;;;;;5067270;28;20033;-65
2021/05/20 09:25:05;;;;;;;2.20;2.08;;;19.70;57.80;;;;;;5070880;28;20430;-64
2021/05/20 09:27:46;;;;;;;3.15;1.90;;;19.70;57.80;;;;;;5068971;28;20089;-64
2021/05/20 09:30:15;;;;;;;1.70;1.60;;;19.70;57.50;;;;;;5067667;28;20037;-65
2021/05/20 09:32:42;;;;;;;2.38;2.00;;;19.80;57.50;;;;;;5066704;28;20036;-64
2021/05/20 09:35:09;;;;;;;3.75;2.10;;;19.80;57.80;;;;;;5070642;28;20042;-66
2021/05/20 09:38:05;;;;;;;2.42;2.00;;;19.90;57.50;;;;;;5073746;28;20039;-66
2021/05/20 09:40:41;;;;;;;5.07;2.15;;;19.90;57.20;;;;;;5071261;28;20036;-67
2021/05/20 09:43:35;;;;;;;3.15;2.00;;;19.90;57.50;;;;;;5071197;28;20056;-67
2021/05/20 09:46:11;;;;;;;3.58;2.30;;;20.00;57.50;;;;;;5065066;28;21481;-66
2021/05/20 09:48:42;;;;;;;2.72;2.10;;;20.10;57.80;;;;;;5072604;28;20036;-66
2021/05/20 09:51:25;;;;;;;1.90;1.80;;;20.10;57.30;;;;;;5072702;28;20032;-66
2021/05/20 09:53:53;;;;;;;1.95;1.85;;;20.20;57.70;;;;;;5070863;28;20032;-66
2021/05/20 09:56:40;;;;;;;3.15;2.10;;;20.20;57.80;;;;;;5071629;28;20567;-66
2021/05/20 09:59:07;;;;;;;4.10;2.10;;;20.20;57.50;;;;;;5075736;28;20097;-65
2021/05/20 10:01:34;;;;;;;2.05;1.92;;;20.20;57.40;;;;;;5072114;28;20051;-66
2021/05/20 10:04:00;;;;;;;1.88;1.77;;;20.20;56.30;;;;;;5065344;28;20227;-66
2021/05/20 10:06:37;;;;;;;1.88;1.77;;;20.20;56.20;;;;;;5079731;28;20043;-66
2021/05/20 10:09:11;;;;;;;1.75;1.65;;;20.10;56.60;;;;;;5077740;28;20075;-65
2021/05/20 10:11:38;;;;;;;1.95;1.80;;;20.10;56.90;;;;;;5075887;28;20054;-65
2021/05/20 10:14:05;;;;;;;1.95;1.85;;;20.10;56.40;;;;;;5077872;28;20024;-66
2021/05/20 10:16:32;;;;;;;4.95;2.00;;;20.10;56.60;;;;;;5077780;28;20036;-66
2021/05/20 10:18:58;;;;;;;3.80;1.63;;;20.10;56.70;;;;;;5074398;28;20131;-65
2021/05/20 10:21:25;;;;;;;1.98;1.88;;;20.20;56.50;;;;;;5074973;28;20032;-65
2021/05/20 10:23:52;;;;;;;2.33;1.80;;;20.20;56.20;;;;;;5075108;28;20388;-66
2021/05/20 10:26:18;;;;;;;3.65;2.10;;;20.20;56.20;;;;;;5071530;28;20085;-66
2021/05/20 10:28:45;;;;;;;2.28;1.92;;;20.20;56.20;;;;;;5067238;28;20032;-66
2021/05/20 10:31:11;;;;;;;2.83;2.40;;;20.30;56.50;;;;;;5069853;28;20027;-66
2021/05/20 10:33:37;;;;;;;1.58;1.48;;;20.30;56.20;;;;;;5068695;28;20028;-66
2021/05/20 10:36:03;;;;;;;1.80;1.70;;;20.40;56.00;;;;;;5067072;28;20587;-66
2021/05/20 10:38:32;;;;;;;6.30;1.90;;;20.40;56.20;;;;;;5071164;28;20028;-66
2021/05/20 10:41:18;;;;;;;1.70;1.60;;;20.40;56.00;;;;;;5068164;28;20036;-66
2021/05/20 10:43:52;;;;;;;2.63;1.85;;;20.50;55.70;;;;;;5069222;28;20048;-65
2021/05/20 10:46:19;;;;;;;2.65;2.13;;;20.50;55.00;;;;;;5069944;28;20032;-66
2021/05/20 11:06:41;;;;;;;3.05;2.00;;;20.70;55.30;;;;;;5093149;28;20085;-65
2021/05/20 11:09:10;;;;;;;2.42;1.90;;;20.70;55.20;;;;;;5072963;28;20086;-62
2021/05/20 11:11:38;;;;;;;1.67;1.58;;;20.70;54.50;;;;;;5074710;28;20115;-65
2021/05/20 11:14:06;;;;;;;2.58;2.05;;;20.60;54.90;;;;;;5080930;28;20028;-65
2021/05/20 11:16:34;;;;;;;2.83;2.10;;;20.60;55.30;;;;;;5069301;28;20024;-65
2021/05/20 11:19:22;;;;;;;2.75;2.30;;;20.70;55.20;;;;;;5076752;28;20114;-65
2021/05/20 11:22:08;;;;;;;2.17;1.92;;;20.70;55.40;;;;;;5075862;28;20462;-65
2021/05/20 11:24:35;;;;;;;2.45;2.25;;;20.70;55.40;;;;;;5072406;28;20028;-65
2021/05/20 11:27:08;;;;;;;2.00;1.90;;;20.70;55.10;;;;;;5072045;28;20039;-65
2021/05/20 11:29:39;;;;;;;2.22;2.00;;;20.60;55.20;;;;;;5078481;28;20055;-65
2021/05/20 11:37:34;;;;;;;2.83;1.98;;;20.70;55.60;;;;;;5074580;28;20081;-64
2021/05/20 11:40:01;;;;;;;2.08;1.70;;;20.70;55.00;;;;;;5076696;28;20036;-65
2021/05/20 11:42:32;;;;;;;3.40;1.92;;;20.70;54.80;;;;;;5075348;28;20722;-64
2021/05/20 11:44:59;;;;;;;1.77;1.67;;;20.70;54.60;;;;;;5072789;28;20087;-64
2021/05/20 11:47:25;;;;;;;1.90;1.80;;;20.70;54.50;;;;;;5071040;28;20035;-64
2021/05/20 11:49:51;;;;;;;1.70;1.60;;;20.70;54.50;;;;;;5072875;28;20063;-64
2021/05/20 11:52:18;;;;;;;2.05;1.95;;;20.70;54.40;;;;;;5071562;28;20028;-64
2021/05/20 11:54:49;;;;;;;2.20;2.00;;;20.70;54.00;;;;;;5072867;28;20111;-63
2021/05/20 11:57:21;;;;;;;2.10;1.90;;;20.70;54.00;;;;;;5073873;28;20048;-66
2021/05/20 11:59:54;;;;;;;2.65;2.00;;;20.70;54.00;;;;;;5076378;28;20455;-64
2021/05/20 12:02:28;;;;;;;2.03;1.90;;;20.70;54.00;;;;;;5076310;28;20112;-65
2021/05/20 12:05:00;;;;;;;1.75;1.65;;;20.60;54.10;;;;;;5073677;28;20051;-66
2021/05/20 12:07:28;;;;;;;1.80;1.70;;;20.70;55.00;;;;;;5079808;28;20486;-64
2021/05/20 12:09:55;;;;;;;2.67;1.70;;;20.70;55.70;;;;;;5071552;28;20033;-65
2021/05/20 12:12:21;;;;;;;2.20;1.90;;;20.80;56.40;;;;;;5074195;28;20075;-65
2021/05/20 12:14:48;;;;;;;2.92;1.92;;;20.80;56.50;;;;;;5073041;28;20040;-65
2021/05/20 12:17:15;;;;;;;1.80;1.70;;;20.80;56.40;;;;;;5069882;28;20031;-64
2021/05/20 12:19:42;;;;;;;2.00;1.88;;;20.80;55.90;;;;;;5071476;28;20045;-65
2021/05/20 12:22:29;;;;;;;4.65;2.20;;;20.80;55.70;;;;;;5073190;28;20114;-66
2021/05/20 12:24:57;;;;;;;3.08;1.90;;;20.70;55.10;;;;;;5073153;28;20135;-66
2021/05/20 12:27:43;;;;;;;2.33;1.83;;;20.60;54.80;;;;;;5071499;28;20043;-66
2021/05/20 12:30:24;;;;;;;2.03;1.92;;;20.60;54.70;;;;;;5074896;28;20695;-67
2021/05/20 12:33:06;;;;;;;;;;;20.60;55.10;;;;;;5071893;28;20024;-64
2021/05/20 12:35:33;;;;;;;2.30;2.15;;;20.50;55.10;;;;;;5071642;28;19965;-66
2021/05/20 12:38:12;;;;;;;2.97;2.13;;;20.50;55.50;;;;;;5070966;28;20024;-66
2021/05/20 12:40:38;;;;;;;4.25;2.25;;;20.50;55.10;;;;;;5073918;28;20127;-66
2021/05/20 12:43:20;;;;;;;3.13;2.28;;;20.50;55.20;;;;;;5076279;28;20074;-66
2021/05/20 12:45:57;;;;;;;3.30;2.13;;;20.50;55.50;;;;;;5072029;28;20037;-66
2021/05/20 12:48:23;;;;;;;2.40;2.20;;;20.40;55.90;;;;;;5070530;28;20487;-66
2021/05/20 12:50:49;;;;;;;2.70;2.10;;;20.40;56.50;;;;;;5063829;28;20031;-66
2021/05/20 12:53:25;;;;;;;2.30;2.10;;;20.40;57.00;;;;;;5067532;28;20042;-66
2021/05/20 12:55:53;;;;;;;2.50;2.30;;;20.30;57.40;;;;;;5073683;28;20031;-65
2021/05/20 12:58:18;;;;;;;2.20;2.00;;;20.20;57.90;;;;;;5070245;28;20118;-63
2021/05/20 13:00:53;;;;;;;2.28;2.08;;;20.20;58.10;;;;;;5072133;28;20038;-65
2021/05/20 13:03:20;;;;;;;1.90;1.80;;;20.20;58.40;;;;;;5072027;28;20028;-65
2021/05/20 13:05:51;;;;;;;1.80;1.70;;;20.20;58.30;;;;;;5071039;28;20051;-65
2021/05/20 13:08:31;;;;;;;2.67;2.10;;;20.20;58.40;;;;;;5068476;28;20038;-66
2021/05/20 13:10:58;;;;;;;2.22;2.03;;;20.30;58.60;;;;;;5066925;28;20040;-64
2021/05/20 13:13:32;;;;;;;2.85;2.20;;;20.30;58.70;;;;;;5074751;28;20181;-65
2021/05/20 13:16:13;;;;;;;2.17;1.95;;;20.30;58.70;;;;;;5076123;28;20521;-62
2021/05/20 13:23:43;;;;;;;2.30;2.10;;;20.40;58.90;;;;;;5075798;28;20482;-66